createdAt,value
2022-08-28T00:02:03.568Z,11.52
2022-08-28T00:04:31.039Z,12.10
2022-08-28T00:06:58.772Z,11.20
2022-08-28T00:09:26.317Z,11.88
2022-08-28T00:11:54.534Z,11.50
2022-08-28T00:14:23.444Z,11.68
2022-08-28T00:16:52.601Z,12.98
2022-08-28T00:19:20.665Z,11.93
2022-08-28T00:21:48.100Z,11.95
2022-08-28T00:24:15.482Z,11.50
2022-08-28T00:27:01.695Z,12.20
2022-08-28T00:29:29.575Z,12.85
2022-08-28T00:31:56.916Z,12.15
2022-08-28T00:34:28.483Z,11.05
2022-08-28T00:37:01.515Z,11.93
2022-08-28T00:39:29.031Z,11.50
2022-08-28T00:41:58.012Z,11.80
2022-08-28T00:44:27.752Z,12.48
2022-08-28T00:46:57.014Z,12.07
2022-08-28T00:49:26.849Z,12.32
2022-08-28T00:52:11.897Z,12.35
2022-08-28T00:54:56.826Z,11.57
2022-08-28T00:57:34.139Z,12.45
2022-08-28T01:00:01.745Z,11.77
2022-08-28T01:02:29.742Z,12.32
2022-08-28T01:04:57.030Z,12.48
2022-08-28T01:07:24.213Z,11.60
2022-08-28T01:09:54.164Z,12.05
2022-08-28T01:12:25.664Z,11.55
2022-08-28T01:14:57.938Z,11.93
2022-08-28T01:17:26.643Z,11.68
2022-08-28T01:19:58.475Z,11.48
2022-08-28T01:22:59.630Z,11.80
2022-08-28T01:25:28.619Z,11.20
2022-08-28T01:27:56.500Z,10.02
2022-08-28T01:30:24.609Z,11.95
2022-08-28T01:32:54.897Z,11.88
2022-08-28T01:35:26.434Z,11.95
2022-08-28T01:37:55.808Z,11.85
2022-08-28T01:40:37.962Z,11.70
2022-08-28T01:43:20.902Z,12.27
2022-08-28T01:45:55.940Z,11.73
2022-08-28T01:48:25.708Z,11.98
2022-08-28T01:50:53.835Z,12.25
2022-08-28T01:53:24.984Z,11.63
2022-08-28T01:55:54.265Z,12.40
2022-08-28T01:58:22.819Z,11.38
2022-08-28T02:00:53.710Z,11.68
2022-08-28T02:03:22.853Z,11.85
2022-08-28T02:05:50.694Z,11.18
2022-08-28T02:08:18.439Z,11.13
2022-08-28T02:10:46.322Z,11.05
2022-08-28T02:13:13.832Z,11.40
2022-08-28T02:15:42.908Z,11.68
2022-08-28T02:18:10.840Z,12.65
2022-08-28T02:20:38.378Z,12.23
2022-08-28T02:23:06.858Z,11.50
2022-08-28T02:25:34.282Z,11.93
2022-08-28T02:28:01.529Z,11.10
2022-08-28T02:30:28.785Z,11.60
2022-08-28T02:32:56.547Z,10.75
2022-08-28T02:35:24.353Z,11.55
2022-08-28T02:37:51.959Z,11.20
2022-08-28T02:40:23.908Z,10.60
2022-08-28T02:42:52.290Z,12.13
2022-08-28T02:45:20.615Z,11.70
2022-08-28T02:47:48.759Z,11.68
2022-08-28T02:50:17.759Z,11.63
2022-08-28T02:52:46.489Z,11.63
2022-08-28T02:55:15.925Z,11.25
2022-08-28T02:57:43.553Z,11.55
2022-08-28T03:00:13.809Z,11.48
2022-08-28T03:02:42.248Z,12.00
2022-08-28T03:05:10.716Z,11.88
2022-08-28T03:07:38.043Z,11.63
2022-08-28T03:10:07.448Z,11.20
2022-08-28T03:12:35.031Z,12.32
2022-08-28T03:15:02.700Z,10.80
2022-08-28T03:17:30.649Z,11.52
2022-08-28T03:19:57.924Z,11.10
2022-08-28T03:22:44.172Z,11.52
2022-08-28T03:25:12.533Z,11.88
2022-08-28T03:27:39.906Z,11.07
2022-08-28T03:30:08.210Z,11.13
2022-08-28T03:32:36.003Z,11.52
2022-08-28T03:35:05.461Z,11.45
2022-08-28T03:37:32.620Z,11.32
2022-08-28T03:40:00.732Z,11.30
2022-08-28T03:42:27.995Z,11.02
2022-08-28T03:44:55.396Z,11.15
2022-08-28T03:47:24.763Z,11.80
2022-08-28T03:49:58.633Z,12.02
2022-08-28T03:52:26.339Z,11.70
2022-08-28T03:54:53.770Z,11.25
2022-08-28T03:57:22.938Z,11.07
2022-08-28T03:59:52.638Z,11.73
2022-08-28T04:02:20.775Z,11.95
2022-08-28T04:04:49.363Z,11.30
2022-08-28T04:07:18.218Z,11.75
2022-08-28T04:09:45.877Z,11.25
2022-08-28T04:12:14.490Z,12.32
2022-08-28T04:14:42.118Z,11.50
2022-08-28T04:17:10.250Z,11.13
2022-08-28T04:19:38.166Z,11.07
2022-08-28T04:22:05.825Z,11.73
2022-08-28T04:24:33.303Z,11.43
2022-08-28T04:27:00.465Z,11.73
2022-08-28T04:29:29.899Z,10.32
2022-08-28T04:31:58.321Z,10.77
2022-08-28T04:34:25.703Z,11.00
2022-08-28T04:36:54.191Z,11.55
2022-08-28T04:39:21.638Z,10.98
2022-08-28T04:41:50.301Z,10.52
2022-08-28T04:44:17.931Z,10.93
2022-08-28T04:46:45.120Z,10.27
2022-08-28T04:49:16.238Z,10.02
2022-08-28T04:51:43.839Z,10.38
2022-08-28T04:54:14.487Z,9.93
2022-08-28T04:56:41.703Z,10.40
2022-08-28T04:59:10.375Z,9.43
2022-08-28T05:01:38.043Z,9.30
2022-08-28T05:04:05.290Z,10.18
2022-08-28T05:06:33.658Z,10.68
2022-08-28T05:09:03.546Z,9.70
2022-08-28T05:11:34.147Z,9.43
2022-08-28T05:14:05.050Z,9.33
2022-08-28T05:16:34.814Z,9.23
2022-08-28T05:19:03.335Z,9.45
2022-08-28T05:21:30.795Z,9.07
2022-08-28T05:23:59.225Z,9.07
2022-08-28T05:26:28.244Z,10.35
2022-08-28T05:28:57.173Z,9.60
2022-08-28T05:31:25.254Z,9.57
2022-08-28T05:33:53.590Z,9.52
2022-08-28T05:36:25.907Z,10.00
2022-08-28T05:39:00.363Z,9.25
2022-08-28T05:41:33.008Z,9.82
2022-08-28T05:44:03.979Z,10.40
2022-08-28T05:46:31.845Z,10.35
2022-08-28T05:49:00.493Z,11.65
2022-08-28T05:51:28.761Z,12.07
2022-08-28T05:53:57.929Z,12.57
2022-08-28T05:56:32.833Z,12.60
2022-08-28T05:59:02.343Z,12.50
2022-08-28T06:01:32.232Z,12.38
2022-08-28T06:04:01.981Z,12.55
2022-08-28T06:06:31.679Z,12.63
2022-08-28T06:09:01.453Z,11.80
2022-08-28T06:11:30.764Z,12.20
2022-08-28T06:14:02.439Z,12.02
2022-08-28T06:16:32.205Z,11.43
2022-08-28T06:19:00.830Z,12.15
2022-08-28T06:21:29.185Z,11.13
2022-08-28T06:23:56.451Z,10.45
2022-08-28T06:26:24.019Z,9.82
2022-08-28T06:28:53.309Z,10.60
2022-08-28T06:31:24.731Z,9.35
2022-08-28T06:33:55.050Z,9.55
2022-08-28T06:36:23.262Z,9.45
2022-08-28T06:38:51.116Z,9.25
2022-08-28T06:41:19.873Z,9.85
2022-08-28T06:43:47.177Z,9.00
2022-08-28T06:46:14.473Z,8.82
2022-08-28T06:48:42.221Z,9.80
2022-08-28T06:51:11.953Z,9.38
2022-08-28T06:53:41.061Z,8.82
2022-08-28T06:56:25.522Z,8.52
2022-08-28T06:58:56.753Z,8.30
2022-08-28T07:01:29.396Z,7.47
2022-08-28T07:04:00.118Z,8.30
2022-08-28T07:06:28.732Z,8.02
2022-08-28T07:08:55.980Z,8.00
2022-08-28T07:11:26.857Z,8.32
2022-08-28T07:13:55.393Z,7.82
2022-08-28T07:16:29.640Z,8.30
2022-08-28T07:18:57.573Z,8.00
2022-08-28T07:21:25.704Z,7.97
2022-08-28T07:23:53.506Z,8.95
2022-08-28T07:26:23.723Z,7.88
2022-08-28T07:28:53.503Z,7.95
2022-08-28T07:31:40.201Z,8.35
2022-08-28T07:34:08.742Z,8.20
2022-08-28T07:36:36.011Z,7.90
2022-08-28T07:39:05.369Z,8.30
2022-08-28T07:41:35.644Z,8.90
2022-08-28T07:44:21.853Z,8.23
2022-08-28T07:46:54.595Z,7.82
2022-08-28T07:49:22.314Z,8.32
2022-08-28T07:51:49.953Z,7.45
2022-08-28T07:54:23.111Z,6.85
2022-08-28T07:56:50.889Z,7.13
2022-08-28T07:59:19.277Z,7.03
2022-08-28T08:01:48.876Z,8.23
2022-08-28T08:04:17.487Z,7.65
2022-08-28T08:06:45.328Z,7.82
2022-08-28T08:09:16.241Z,7.50
2022-08-28T08:11:43.812Z,7.00
2022-08-28T08:14:12.112Z,7.00
2022-08-28T08:16:42.608Z,7.25
2022-08-28T08:19:14.091Z,7.53
2022-08-28T08:21:53.223Z,7.57
2022-08-28T08:24:25.935Z,7.35
2022-08-28T08:27:00.080Z,7.93
2022-08-28T08:29:31.577Z,6.85
2022-08-28T08:32:05.549Z,8.38
2022-08-28T08:34:39.898Z,6.47
2022-08-28T08:37:07.982Z,8.18
2022-08-28T08:39:36.192Z,7.72
2022-08-28T08:42:21.493Z,7.70
2022-08-28T08:44:52.193Z,7.88
2022-08-28T08:47:49.330Z,6.88
2022-08-28T08:50:21.005Z,7.00
2022-08-28T08:52:55.613Z,7.03
2022-08-28T08:55:31.749Z,6.90
2022-08-28T08:58:15.883Z,7.45
2022-08-28T09:01:04.347Z,8.10
2022-08-28T09:03:56.342Z,7.45
2022-08-28T09:06:33.510Z,6.95
2022-08-28T09:09:04.040Z,7.32
2022-08-28T09:11:35.677Z,7.05
2022-08-28T09:14:17.060Z,7.20
2022-08-28T09:16:48.396Z,7.93
2022-08-28T09:19:20.459Z,7.15
2022-08-28T09:21:49.550Z,7.05
2022-08-28T09:24:29.041Z,7.90
2022-08-28T09:26:59.527Z,7.18
2022-08-28T09:29:43.508Z,7.33
2022-08-28T09:32:25.264Z,7.78
2022-08-28T09:35:19.278Z,6.73
2022-08-28T09:37:46.667Z,7.22
2022-08-28T09:40:48.475Z,7.15
2022-08-28T09:43:27.558Z,7.80
2022-08-28T09:46:02.802Z,7.18
2022-08-28T09:48:44.450Z,7.70
2022-08-28T09:51:29.476Z,8.27
2022-08-28T09:54:05.296Z,7.20
2022-08-28T09:56:40.131Z,7.50
2022-08-28T09:59:13.171Z,7.95
2022-08-28T10:01:51.129Z,7.30
2022-08-28T10:04:24.116Z,7.30
2022-08-28T10:06:55.407Z,7.10
2022-08-28T10:09:34.625Z,7.00
2022-08-28T10:12:11.493Z,6.95
2022-08-28T10:14:49.090Z,6.47
2022-08-28T10:17:55.646Z,7.05
2022-08-28T10:21:00.314Z,6.75
2022-08-28T10:23:46.394Z,6.90
2022-08-28T10:26:32.789Z,6.65
2022-08-28T10:29:30.309Z,6.22
2022-08-28T10:32:21.638Z,5.93
2022-08-28T10:35:03.580Z,6.95
2022-08-28T10:37:37.015Z,7.22
2022-08-28T10:40:11.784Z,6.75
2022-08-28T10:42:44.609Z,6.45
2022-08-28T10:45:14.782Z,6.55
2022-08-28T10:47:46.443Z,6.45
2022-08-28T10:50:26.699Z,6.72
2022-08-28T10:52:58.750Z,6.32
2022-08-28T10:55:34.791Z,6.72
2022-08-28T10:58:24.556Z,6.40
2022-08-28T11:01:05.428Z,5.72
2022-08-28T11:03:40.714Z,6.43
2022-08-28T11:06:34.020Z,5.57
2022-08-28T11:09:24.874Z,6.43
2022-08-28T11:12:01.735Z,5.78
2022-08-28T11:14:47.881Z,6.25
2022-08-28T11:17:21.906Z,6.10
2022-08-28T11:20:16.071Z,6.07
2022-08-28T11:22:48.997Z,5.80
2022-08-28T11:25:26.706Z,6.15
2022-08-28T11:28:22.503Z,5.35
2022-08-28T11:31:19.111Z,6.25
2022-08-28T11:33:59.285Z,6.20
2022-08-28T11:36:28.267Z,6.78
2022-08-28T11:38:55.666Z,5.70
2022-08-28T11:41:30.780Z,5.60
2022-08-28T11:44:13.018Z,6.07
2022-08-28T11:46:45.133Z,5.80
2022-08-28T11:49:27.398Z,5.72
2022-08-28T11:52:21.648Z,5.60
2022-08-28T11:55:14.523Z,5.00
2022-08-28T12:00:51.590Z,5.95
2022-08-28T12:03:35.845Z,5.72
2022-08-28T12:06:03.774Z,5.97
2022-08-28T12:08:59.198Z,5.95
2022-08-28T12:11:41.949Z,5.65
2022-08-28T12:14:29.650Z,5.63
2022-08-28T12:17:00.160Z,5.22
2022-08-28T12:19:56.851Z,5.97
2022-08-28T12:22:26.725Z,6.18
2022-08-28T12:24:59.895Z,6.45
2022-08-28T12:27:28.910Z,5.88
2022-08-28T12:29:58.816Z,6.10
2022-08-28T12:32:26.220Z,6.40
2022-08-28T12:34:53.401Z,6.15
2022-08-28T12:37:20.929Z,5.93
2022-08-28T12:39:48.555Z,6.28
2022-08-28T12:42:20.205Z,6.25
2022-08-28T12:44:47.966Z,6.20
2022-08-28T12:47:18.971Z,6.15
2022-08-28T12:49:47.157Z,6.53
2022-08-28T12:52:18.811Z,6.65
2022-08-28T12:54:47.529Z,6.90
2022-08-28T12:57:23.946Z,7.20
2022-08-28T12:59:54.125Z,6.47
2022-08-28T13:02:34.561Z,6.32
2022-08-28T13:05:11.851Z,6.63
2022-08-28T13:07:51.520Z,6.72
2022-08-28T13:10:38.606Z,6.47
2022-08-28T13:13:19.092Z,7.43
2022-08-28T13:15:57.171Z,7.35
2022-08-28T13:18:39.004Z,7.60
2022-08-28T13:21:33.213Z,7.78
2022-08-28T13:24:26.296Z,7.47
2022-08-28T13:27:14.333Z,7.57
2022-08-28T13:30:00.915Z,7.97
2022-08-28T13:32:30.648Z,8.02
2022-08-28T13:35:10.548Z,7.25
2022-08-28T13:37:50.195Z,8.90
2022-08-28T13:40:53.527Z,9.38
2022-08-28T13:43:11.049Z,8.60
2022-08-28T13:45:43.094Z,7.40
2022-08-28T13:48:16.634Z,8.10
2022-08-28T13:50:47.657Z,7.10
2022-08-28T13:53:18.028Z,6.57
2022-08-28T13:55:47.210Z,7.95
2022-08-28T13:58:14.820Z,7.95
2022-08-28T14:00:46.591Z,7.80
2022-08-28T14:03:32.944Z,7.10
2022-08-28T14:06:00.727Z,7.47
2022-08-28T14:08:28.309Z,8.05
2022-08-28T14:10:55.663Z,8.05
2022-08-28T14:13:26.840Z,10.65
2022-08-28T14:15:56.145Z,8.07
2022-08-28T14:18:25.830Z,6.93
2022-08-28T14:20:53.229Z,6.95
2022-08-28T14:23:20.635Z,6.50
2022-08-28T14:25:49.222Z,10.25
2022-08-28T14:28:17.303Z,7.57
2022-08-28T14:30:49.547Z,7.75
2022-08-28T14:33:20.543Z,7.03
2022-08-28T14:35:49.383Z,6.32
2022-08-28T14:38:17.359Z,7.13
2022-08-28T14:40:45.500Z,7.03
2022-08-28T14:43:14.066Z,7.45
2022-08-28T14:45:46.635Z,8.35
2022-08-28T14:48:15.086Z,7.32
2022-08-28T14:50:44.091Z,6.47
2022-08-28T14:53:13.993Z,6.50
2022-08-28T14:55:45.818Z,6.68
2022-08-28T14:58:14.798Z,5.53
2022-08-28T15:00:49.035Z,6.03
2022-08-28T15:03:18.730Z,6.32
2022-08-28T15:05:47.012Z,6.75
2022-08-28T15:08:17.128Z,5.82
2022-08-28T15:10:45.018Z,6.60
2022-08-28T15:13:13.081Z,6.57
2022-08-28T15:15:43.297Z,6.93
2022-08-28T15:18:11.573Z,6.90
2022-08-28T15:20:46.566Z,7.25
2022-08-28T15:23:15.345Z,7.03
2022-08-28T15:25:43.209Z,6.50
2022-08-28T15:28:10.973Z,6.80
2022-08-28T15:30:39.440Z,6.50
2022-08-28T15:33:09.350Z,7.32
2022-08-28T15:35:37.356Z,7.60
2022-08-28T15:38:05.779Z,7.25
2022-08-28T15:40:52.572Z,7.63
2022-08-28T15:43:20.855Z,6.90
2022-08-28T15:45:48.438Z,7.75
2022-08-28T15:48:16.241Z,7.72
2022-08-28T15:50:44.948Z,7.35
2022-08-28T15:53:12.997Z,7.38
2022-08-28T15:55:40.869Z,8.32
2022-08-28T15:58:08.905Z,8.15
2022-08-28T16:00:42.756Z,8.07
2022-08-28T16:03:10.799Z,8.35
2022-08-28T16:05:39.685Z,8.48
2022-08-28T16:08:10.602Z,8.30
2022-08-28T16:10:38.883Z,8.60
2022-08-28T16:13:08.300Z,8.52
2022-08-28T16:15:37.104Z,8.00
2022-08-28T16:18:09.311Z,7.97
2022-08-28T16:23:09.273Z,8.60
2022-08-28T16:25:41.168Z,9.20
2022-08-28T16:28:13.566Z,9.55
2022-08-28T16:30:43.851Z,10.80
2022-08-28T16:33:16.747Z,9.52
2022-08-28T16:35:56.097Z,10.40
2022-08-28T16:38:28.304Z,9.45
2022-08-28T16:40:55.754Z,10.30
2022-08-28T16:43:23.281Z,9.20
2022-08-28T16:45:51.276Z,9.45
2022-08-28T16:48:19.172Z,9.35
2022-08-28T16:50:46.717Z,9.00
2022-08-28T16:53:14.139Z,9.48
2022-08-28T16:55:47.816Z,10.27
2022-08-28T16:58:17.077Z,10.00
2022-08-28T17:00:54.833Z,9.52
2022-08-28T17:03:26.513Z,9.82
2022-08-28T17:05:56.457Z,10.30
2022-08-28T17:08:24.010Z,10.15
2022-08-28T17:10:51.898Z,9.85
2022-08-28T17:13:19.261Z,9.32
2022-08-28T17:15:46.603Z,9.75
2022-08-28T17:18:14.429Z,9.48
2022-08-28T17:21:00.483Z,10.38
2022-08-28T17:23:28.250Z,11.18
2022-08-28T17:25:56.103Z,10.38
2022-08-28T17:28:23.796Z,9.70
2022-08-28T17:30:51.469Z,11.90
2022-08-28T17:33:18.856Z,10.93
2022-08-28T17:35:46.309Z,14.57
2022-08-28T17:38:18.028Z,13.20
2022-08-28T17:40:45.408Z,12.32
2022-08-28T17:43:12.829Z,10.82
2022-08-28T17:45:40.510Z,8.98
2022-08-28T17:48:08.444Z,6.65
2022-08-28T17:50:35.777Z,6.00
2022-08-28T17:53:03.704Z,6.53
2022-08-28T17:55:31.118Z,5.40
2022-08-28T17:57:59.099Z,5.60
2022-08-28T18:00:26.647Z,5.53
2022-08-28T18:02:54.807Z,5.30
2022-08-28T18:05:22.337Z,6.05
2022-08-28T18:07:50.189Z,5.35
2022-08-28T18:10:17.691Z,5.55
2022-08-28T18:12:46.346Z,5.68
2022-08-28T18:15:15.134Z,6.00
2022-08-28T18:17:44.152Z,5.45
2022-08-28T18:20:12.491Z,5.40
2022-08-28T18:22:40.217Z,5.75
2022-08-28T18:25:08.284Z,5.63
2022-08-28T18:27:36.758Z,5.60
2022-08-28T18:30:04.897Z,6.05
2022-08-28T18:32:32.558Z,6.03
2022-08-28T18:35:00.017Z,5.88
2022-08-28T18:37:27.703Z,5.57
2022-08-28T18:39:55.479Z,5.25
2022-08-28T18:42:23.831Z,5.35
2022-08-28T18:44:51.642Z,5.80
2022-08-28T18:47:19.212Z,4.65
2022-08-28T18:49:46.840Z,5.30
2022-08-28T18:52:14.665Z,5.15
2022-08-28T18:54:42.589Z,5.10
2022-08-28T18:57:11.714Z,4.97
2022-08-28T18:59:39.581Z,5.50
2022-08-28T19:02:07.808Z,4.95
2022-08-28T19:04:36.652Z,5.35
2022-08-28T19:07:05.715Z,4.88
2022-08-28T19:09:34.898Z,5.40
2022-08-28T19:12:02.733Z,5.50
2022-08-28T19:14:30.915Z,5.70
2022-08-28T19:16:58.560Z,4.97
2022-08-28T19:19:26.488Z,5.28
2022-08-28T19:21:54.643Z,5.32
2022-08-28T19:24:22.531Z,5.07
2022-08-28T19:26:49.874Z,5.30
2022-08-28T19:29:17.758Z,4.70
2022-08-28T19:31:45.293Z,4.65
2022-08-28T19:34:13.237Z,4.50
2022-08-28T19:36:42.049Z,4.40
2022-08-28T19:39:09.525Z,4.20
2022-08-28T19:41:37.628Z,4.70
2022-08-28T19:44:06.197Z,4.03
2022-08-28T19:46:36.292Z,4.53
2022-08-28T19:49:05.091Z,4.25
2022-08-28T19:51:34.460Z,4.18
2022-08-28T19:54:03.883Z,3.85
2022-08-28T19:56:33.401Z,3.58
2022-08-28T19:59:03.197Z,3.33
2022-08-28T20:01:33.271Z,3.53
2022-08-28T20:04:00.731Z,4.20
2022-08-28T20:06:31.671Z,3.63
2022-08-28T20:08:59.602Z,2.97
2022-08-28T20:11:30.403Z,3.67
2022-08-28T20:14:04.585Z,3.20
2022-08-28T20:16:35.230Z,3.20
2022-08-28T20:19:04.062Z,3.58
2022-08-28T20:21:37.850Z,3.38
2022-08-28T20:24:13.317Z,3.65
2022-08-28T20:26:40.753Z,3.63
2022-08-28T20:29:09.071Z,3.60
2022-08-28T20:31:43.709Z,3.58
2022-08-28T20:34:12.687Z,4.10
2022-08-28T20:36:40.451Z,3.97
2022-08-28T20:39:09.397Z,3.83
2022-08-28T20:41:39.008Z,3.67
2022-08-28T20:44:07.966Z,3.67
2022-08-28T20:46:43.551Z,3.83
2022-08-28T20:49:12.328Z,3.72
2022-08-28T20:51:53.248Z,3.10
2022-08-28T20:54:26.922Z,3.50
2022-08-28T20:56:55.094Z,3.60
2022-08-28T20:59:22.521Z,3.60
2022-08-28T21:01:51.338Z,3.60
2022-08-28T21:04:18.874Z,3.78
2022-08-28T21:06:46.962Z,3.80
2022-08-28T21:09:15.239Z,3.92
2022-08-28T21:11:43.819Z,4.22
2022-08-28T21:14:12.044Z,3.67
2022-08-28T21:16:40.448Z,3.45
2022-08-28T21:19:16.691Z,3.88
2022-08-28T21:21:45.695Z,3.83
2022-08-28T21:24:15.289Z,4.22
2022-08-28T21:26:44.701Z,3.78
2022-08-28T21:29:14.112Z,5.15
2022-08-28T21:31:43.166Z,4.75
2022-08-28T21:34:11.904Z,4.18
2022-08-28T21:36:48.106Z,4.55
2022-08-28T21:39:20.863Z,3.78
2022-08-28T21:41:50.075Z,3.88
2022-08-28T21:44:18.335Z,3.45
2022-08-28T21:46:45.857Z,3.53
2022-08-28T21:49:13.525Z,3.67
2022-08-28T21:51:40.996Z,4.22
2022-08-28T21:54:08.836Z,3.95
2022-08-28T21:56:36.456Z,4.32
2022-08-28T21:59:04.325Z,4.03
2022-08-28T22:01:31.630Z,4.25
2022-08-28T22:03:59.311Z,4.75
2022-08-28T22:06:27.224Z,3.75
2022-08-28T22:08:55.672Z,4.13
2022-08-28T22:11:25.207Z,4.10
2022-08-28T22:13:54.456Z,4.97
2022-08-28T22:16:22.051Z,4.80
2022-08-28T22:18:50.144Z,4.50
2022-08-28T22:21:43.761Z,4.93
2022-08-28T22:24:12.188Z,4.60
2022-08-28T22:26:39.851Z,4.43
2022-08-28T22:29:08.102Z,5.07
2022-08-28T22:31:36.695Z,5.10
2022-08-28T22:34:06.987Z,4.88
2022-08-28T22:36:34.361Z,5.57
2022-08-28T22:39:01.783Z,5.40
2022-08-28T22:41:30.363Z,6.18
2022-08-28T22:43:58.068Z,6.72
2022-08-28T22:46:25.683Z,5.93
2022-08-28T22:48:53.233Z,6.82
2022-08-28T22:51:20.750Z,6.35
2022-08-28T22:53:48.749Z,7.43
2022-08-28T22:56:17.448Z,7.38
2022-08-28T22:58:45.183Z,7.88
2022-08-28T23:01:19.692Z,7.60
2022-08-28T23:03:47.389Z,8.05
2022-08-28T23:06:15.635Z,7.22
2022-08-28T23:08:43.002Z,8.05
2022-08-28T23:11:11.245Z,8.20
2022-08-28T23:13:39.278Z,8.38
2022-08-28T23:16:07.124Z,8.25
2022-08-28T23:18:51.642Z,7.50
2022-08-28T23:21:23.844Z,8.70
2022-08-28T23:23:55.053Z,8.38
2022-08-28T23:26:22.847Z,7.53
2022-08-28T23:28:50.241Z,8.40
2022-08-28T23:31:17.986Z,9.20
2022-08-28T23:33:45.913Z,9.77
2022-08-28T23:36:13.331Z,9.85
2022-08-28T23:38:43.096Z,10.10
2022-08-28T23:41:11.755Z,10.32
2022-08-28T23:43:41.079Z,9.77
2022-08-28T23:46:09.892Z,9.57
2022-08-28T23:48:41.431Z,9.50
2022-08-28T23:51:10.044Z,8.93
2022-08-28T23:53:40.139Z,8.57
2022-08-28T23:56:07.979Z,9.55
2022-08-28T23:58:35.624Z,9.60
